DAUU/OGX METAR and TAF weather

Enter ICAO airport designator
Station Type Date Time Source
DAUU METAR 2018/01/16 09:00 UTC NOAA

DAUU 160900Z 33008KT CAVOK 08/M01 Q1029


Station Type Date Time Source
DAUU Decoded METAR 2018/01/16 09:00 UTC NOAA

Ouargla, Algeria (DAUU) 31-55N 005-24E 141M
Jan 16, 2018 - 04:00 AM EST / 2018.01.16 0900 UTC
Wind: from the NNW (330 degrees) at 9 MPH (8 KT):0
Visibility: greater than 7 mile(s):0
Temperature: 46 F (8 C)
Dew Point: 30 F (-1 C)
Relative Humidity: 52%
Pressure (altimeter): 30.39 in. Hg (1029 hPa)
ob: DAUU 160900Z 33008KT CAVOK 08/M01 Q1029
cycle: 9

Station Type Date Time Source
DAUU TAF 2017/11/09 18:03 UTC NOAA

TAF DAUU 091700Z 0918/1009 34012KT 9999 FEW040 SCT100 PROB40
TEMPO 0918/0924 34015G25KT 5000 -TSRA FEW036CB


Example: see airport list